Time;durP1;ratioP1;P1;durP2;ratioP2;P2;SDS_P1;SDS_P2;PMS_P1;PMS_P2;Temp;Humidity;BMP_temperature;BMP_pressure;BME280_temperature;BME280_humidity;BME280_pressure;Samples;Min_cycle;Max_cycle;Signal;HPM_P1;HPM_P2
2023/09/28 00:00:36;;;;;;;11.07;5.13;;;20.60;82.80;;;;;;5109303;28;20135;-80
2023/09/28 00:03:05;;;;;;;9.77;4.97;;;20.80;82.60;;;;;;5091215;28;20126;-79
2023/09/28 00:05:34;;;;;;;9.90;5.43;;;20.70;83.10;;;;;;5111317;27;20031;-76
2023/09/28 00:08:02;;;;;;;8.32;5.10;;;20.70;83.50;;;;;;5075204;28;20039;-77
2023/09/28 00:13:32;;;;;;;8.10;4.80;;;20.30;83.80;;;;;;5091067;28;20059;-78
2023/09/28 00:15:59;;;;;;;9.02;5.00;;;20.30;84.20;;;;;;5110487;28;20059;-79
2023/09/28 00:18:26;;;;;;;8.30;5.10;;;20.50;84.20;;;;;;5075854;28;20039;-79
2023/09/28 00:20:53;;;;;;;8.07;5.38;;;20.50;84.10;;;;;;5088899;28;20043;-78
2023/09/28 00:23:20;;;;;;;9.13;5.15;;;20.60;84.00;;;;;;5117695;27;20051;-79
2023/09/28 00:25:49;;;;;;;8.45;4.20;;;20.60;83.80;;;;;;5101760;27;20055;-81
2023/09/28 00:31:20;;;;;;;12.25;4.70;;;20.20;85.30;;;;;;5131021;27;20125;-80
2023/09/28 00:33:47;;;;;;;10.27;4.93;;;20.20;85.00;;;;;;5107099;27;20394;-77
2023/09/28 00:36:14;;;;;;;10.55;5.30;;;19.80;86.60;;;;;;5126038;27;20079;-79
2023/09/28 00:38:41;;;;;;;9.35;4.78;;;19.90;86.50;;;;;;5095764;27;20058;-79
2023/09/28 00:41:08;;;;;;;13.07;5.22;;;20.30;86.30;;;;;;5106631;27;20039;-80
2023/09/28 00:43:36;;;;;;;7.95;4.88;;;20.30;86.10;;;;;;5108679;27;20035;-79
2023/09/28 00:46:22;;;;;;;9.23;5.30;;;20.30;86.50;;;;;;5129297;27;20039;-77
2023/09/28 00:49:03;;;;;;;9.98;5.15;;;20.40;86.40;;;;;;5120169;27;20123;-78
2023/09/28 00:57:22;;;;;;;9.00;5.10;;;20.20;87.60;;;;;;5117169;27;20427;-78
2023/09/28 01:02:50;;;;;;;11.40;4.72;;;20.20;87.90;;;;;;5127158;27;20031;-77
2023/09/28 01:05:39;;;;;;;12.05;5.25;;;20.20;87.70;;;;;;5109770;27;20075;-77
2023/09/28 01:08:24;;;;;;;10.90;5.30;;;20.20;88.30;;;;;;5122111;27;20031;-79
2023/09/28 01:10:51;;;;;;;10.35;5.20;;;20.00;88.60;;;;;;5129753;27;20364;-77
2023/09/28 01:13:20;;;;;;;9.13;5.22;;;20.00;89.70;;;;;;5124095;27;20743;-80
2023/09/28 01:16:05;;;;;;;8.85;5.30;;;20.10;88.70;;;;;;5106899;27;20509;-77
2023/09/28 01:18:49;;;;;;;12.68;4.70;;;19.80;89.20;;;;;;5131295;27;20035;-79
2023/09/28 01:21:17;;;;;;;7.18;4.53;;;19.90;90.10;;;;;;5119414;28;20035;-78
2023/09/28 01:24:20;;;;;;;10.52;6.18;;;19.60;90.30;;;;;;5121732;27;20051;-79
2023/09/28 01:27:08;;;;;;;8.00;4.63;;;19.60;90.70;;;;;;5126531;27;20070;-79
2023/09/28 01:29:35;;;;;;;8.38;5.00;;;19.70;90.60;;;;;;5118775;28;20047;-78
2023/09/28 01:35:08;;;;;;;9.15;4.95;;;19.80;90.80;;;;;;5126588;28;20119;-80
2023/09/28 01:37:47;;;;;;;9.38;4.72;;;19.70;90.90;;;;;;5124637;28;20122;-79
2023/09/28 01:40:15;;;;;;;9.70;4.95;;;19.60;91.20;;;;;;5110427;28;20126;-80
2023/09/28 01:45:28;;;;;;;11.00;5.20;;;19.70;91.10;;;;;;5119481;28;20042;-79
2023/09/28 01:48:31;;;;;;;12.57;4.80;;;19.60;91.10;;;;;;5119661;28;20019;-81
2023/09/28 01:51:02;;;;;;;9.43;5.18;;;19.50;91.30;;;;;;5107714;28;20053;-78
2023/09/28 01:53:46;;;;;;;10.00;5.50;;;19.20;91.60;;;;;;5110699;28;20092;-78
2023/09/28 01:56:13;;;;;;;7.53;4.82;;;19.30;92.00;;;;;;5127141;28;20047;-78
2023/09/28 02:01:27;;;;;;;10.07;4.97;;;19.40;91.90;;;;;;5129313;28;20375;-79
2023/09/28 02:04:13;;;;;;;14.10;5.45;;;19.40;91.90;;;;;;5129777;28;20036;-79
2023/09/28 02:06:40;;;;;;;8.48;4.85;;;19.50;91.90;;;;;;5124834;28;20128;-80
2023/09/28 02:09:07;;;;;;;11.95;5.20;;;19.50;92.00;;;;;;5105718;28;20039;-80
2023/09/28 02:14:38;;;;;;;9.85;5.43;;;19.40;92.50;;;;;;5126721;28;20068;-79
2023/09/28 02:17:22;;;;;;;11.93;5.38;;;19.30;92.80;;;;;;5122439;28;20439;-79
2023/09/28 02:20:10;;;;;;;9.73;5.95;;;19.30;93.00;;;;;;5124932;28;20062;-78
2023/09/28 02:22:45;;;;;;;11.32;5.30;;;19.30;93.10;;;;;;5126983;28;20122;-79
2023/09/28 02:25:15;;;;;;;12.38;5.05;;;19.30;93.10;;;;;;5126609;28;20075;-77
2023/09/28 02:27:43;;;;;;;8.02;4.72;;;19.30;93.20;;;;;;5126810;27;20076;-82
2023/09/28 02:30:30;;;;;;;9.30;5.28;;;19.20;93.30;;;;;;5128890;27;20054;-80
2023/09/28 02:33:14;;;;;;;7.70;5.07;;;19.30;93.30;;;;;;5110612;27;20528;-79
2023/09/28 02:35:42;;;;;;;10.48;5.03;;;18.90;93.10;;;;;;5128151;27;20501;-80
2023/09/28 02:38:09;;;;;;;11.77;4.65;;;18.70;93.30;;;;;;5110915;27;20508;-81
2023/09/28 02:43:41;;;;;;;9.82;5.32;;;18.50;93.80;;;;;;5126083;27;20046;-83
2023/09/28 02:48:55;;;;;;;10.88;4.80;;;18.40;94.00;;;;;;5131611;27;20557;-82
2023/09/28 02:51:22;;;;;;;6.88;4.78;;;18.80;93.40;;;;;;5115125;27;20047;-82
2023/09/28 02:54:09;;;;;;;9.45;4.47;;;19.10;92.80;;;;;;5115983;27;20107;-80
2023/09/28 02:59:22;;;;;;;11.90;4.97;;;19.40;92.20;;;;;;5109918;27;20043;-81
2023/09/28 03:01:49;;;;;;;8.35;5.15;;;19.50;91.90;;;;;;5125402;27;20394;-82
2023/09/28 03:04:53;;;;;;;9.13;4.63;;;19.40;92.00;;;;;;5114462;27;20029;-83
2023/09/28 03:07:20;;;;;;;10.05;4.60;;;19.40;92.20;;;;;;5119553;27;20047;-79
2023/09/28 03:09:47;;;;;;;12.95;5.35;;;19.20;92.50;;;;;;5129718;27;20039;-80
2023/09/28 03:12:15;;;;;;;8.90;4.72;;;19.10;92.40;;;;;;5131707;27;20031;-78
2023/09/28 03:14:42;;;;;;;9.70;5.05;;;19.30;92.40;;;;;;5129191;27;20040;-79
2023/09/28 03:17:09;;;;;;;9.80;5.07;;;19.20;92.90;;;;;;5107911;27;20130;-78
2023/09/28 03:19:56;;;;;;;8.70;5.47;;;19.10;93.60;;;;;;5107908;27;20059;-78
2023/09/28 03:22:23;;;;;;;11.60;5.10;;;19.10;93.80;;;;;;5108387;27;20036;-80
2023/09/28 03:24:50;;;;;;;9.98;5.63;;;19.00;94.00;;;;;;5119902;27;20043;-77
2023/09/28 03:27:18;;;;;;;11.27;5.35;;;18.90;94.30;;;;;;5102877;27;20049;-78
2023/09/28 03:29:45;;;;;;;10.93;5.45;;;18.60;95.00;;;;;;5130636;27;20038;-76
2023/09/28 03:35:17;;;;;;;11.43;5.40;;;18.50;95.50;;;;;;5126700;27;20043;-79
2023/09/28 03:37:45;;;;;;;9.93;5.28;;;18.60;95.60;;;;;;5109180;27;20066;-80
2023/09/28 03:40:13;;;;;;;7.55;4.93;;;18.70;95.10;;;;;;5113848;27;20046;-80
2023/09/28 03:42:42;;;;;;;7.55;4.97;;;18.80;95.10;;;;;;5134618;27;20031;-81
2023/09/28 03:45:28;;;;;;;8.80;4.95;;;18.80;95.00;;;;;;5103611;27;20050;-80
2023/09/28 03:48:14;;;;;;;10.55;4.93;;;18.60;95.20;;;;;;5110107;27;20145;-79
2023/09/28 03:50:43;;;;;;;8.30;5.32;;;18.50;95.40;;;;;;5095617;27;20050;-79
2023/09/28 03:53:29;;;;;;;9.98;4.95;;;18.60;95.50;;;;;;5089443;27;20047;-82
2023/09/28 03:56:32;;;;;;;9.57;4.85;;;18.70;95.30;;;;;;5109873;27;20068;-80
2023/09/28 03:59:00;;;;;;;9.98;4.97;;;18.80;95.30;;;;;;5126358;27;20050;-81
2023/09/28 04:01:28;;;;;;;8.77;4.55;;;18.70;95.10;;;;;;5103579;27;20058;-78
2023/09/28 04:03:56;;;;;;;7.68;5.00;;;18.50;95.40;;;;;;5128581;27;20032;-81
2023/09/28 04:06:23;;;;;;;10.43;5.43;;;18.40;95.80;;;;;;5127768;27;20067;-78
2023/09/28 04:09:10;;;;;;;12.65;5.35;;;18.10;96.50;;;;;;5112782;27;20043;-82
2023/09/28 04:11:37;;;;;;;11.60;5.10;;;18.10;97.00;;;;;;5100369;27;20055;-81
2023/09/28 04:14:07;;;;;;;8.45;4.85;;;18.00;97.20;;;;;;5121204;27;20039;-81
2023/09/28 04:16:35;;;;;;;10.77;6.03;;;18.00;97.10;;;;;;5112279;27;20036;-80
2023/09/28 04:19:02;;;;;;;9.07;5.18;;;18.10;97.00;;;;;;5127771;27;20387;-81
2023/09/28 04:24:15;;;;;;;11.98;6.22;;;18.00;97.80;;;;;;5112109;27;20096;-80
2023/09/28 04:26:59;;;;;;;9.98;5.70;;;18.00;97.70;;;;;;5125310;27;20042;-79
2023/09/28 04:29:45;;;;;;;11.00;5.45;;;18.00;97.80;;;;;;5129894;27;20386;-81
2023/09/28 04:32:12;;;;;;;8.77;5.45;;;17.80;98.10;;;;;;5109578;27;20138;-78
2023/09/28 04:34:40;;;;;;;9.38;6.35;;;17.80;98.60;;;;;;5090669;27;20039;-80
2023/09/28 04:37:26;;;;;;;12.38;5.78;;;17.70;99.10;;;;;;5104613;27;20043;-80
2023/09/28 04:40:11;;;;;;;10.50;5.28;;;17.60;99.50;;;;;;5121873;27;20387;-80
2023/09/28 04:45:24;;;;;;;8.90;5.70;;;17.90;99.30;;;;;;5095129;28;20357;-82
2023/09/28 04:47:51;;;;;;;14.52;6.13;;;17.90;99.20;;;;;;5121378;27;20047;-80
2023/09/28 04:50:18;;;;;;;9.70;5.20;;;17.80;99.70;;;;;;5129496;27;20031;-82
2023/09/28 04:52:46;;;;;;;10.63;5.72;;;17.90;99.30;;;;;;5107376;27;20053;-83
2023/09/28 04:55:30;;;;;;;110.03;68.10;;;17.90;99.20;;;;;;5094149;27;20031;-84
2023/09/28 04:57:57;;;;;;;52.95;30.15;;;17.90;99.40;;;;;;5095665;27;20039;-82
2023/09/28 05:00:25;;;;;;;28.02;17.40;;;18.10;99.50;;;;;;5087210;28;20047;-80
2023/09/28 05:02:52;;;;;;;16.75;9.07;;;18.20;98.90;;;;;;5084414;28;20034;-82
2023/09/28 05:05:38;;;;;;;59.13;35.42;;;18.10;98.90;;;;;;5112315;27;20119;-80
2023/09/28 05:08:06;;;;;;;135.35;83.10;;;18.00;99.40;;;;;;5104628;27;20051;-81
2023/09/28 05:10:33;;;;;;;319.80;189.82;;;18.10;99.40;;;;;;5095035;27;20371;-78
2023/09/28 05:13:00;;;;;;;24.73;18.90;;;18.20;99.30;;;;;;5111141;27;20135;-81
2023/09/28 05:15:27;;;;;;;14.77;8.63;;;18.00;99.40;;;;;;5125629;27;20391;-80
2023/09/28 05:17:54;;;;;;;14.30;8.85;;;17.90;99.60;;;;;;5111295;27;20179;-79
2023/09/28 05:20:40;;;;;;;11.60;7.60;;;17.80;99.80;;;;;;5103540;28;20057;-82
2023/09/28 05:23:25;;;;;;;10.88;6.45;;;17.90;99.90;;;;;;5111695;28;20122;-81
2023/09/28 05:25:52;;;;;;;14.88;6.82;;;17.90;99.90;;;;;;5127612;27;20027;-78
2023/09/28 05:28:20;;;;;;;13.98;9.15;;;17.80;99.90;;;;;;5124651;27;20034;-83
2023/09/28 05:30:47;;;;;;;64.97;38.65;;;17.90;99.90;;;;;;5127315;27;20050;-80
2023/09/28 05:33:14;;;;;;;25.13;14.63;;;18.00;99.90;;;;;;5123048;28;20032;-80
2023/09/28 05:39:08;;;;;;;12.00;7.03;;;18.00;99.70;;;;;;5110499;28;20042;-82
2023/09/28 05:41:36;;;;;;;11.57;6.88;;;18.00;99.90;;;;;;5105499;28;20123;-81
2023/09/28 05:44:03;;;;;;;16.60;7.47;;;18.00;99.90;;;;;;5095131;28;20035;-78
2023/09/28 05:46:50;;;;;;;10.68;6.13;;;17.80;99.90;;;;;;5124073;27;20036;-78
2023/09/28 05:49:18;;;;;;;11.77;6.55;;;18.00;99.90;;;;;;5109971;28;20091;-79
2023/09/28 05:51:48;;;;;;;12.18;7.20;;;18.10;99.90;;;;;;5085079;28;20047;-81
2023/09/28 05:57:01;;;;;;;9.48;5.78;;;18.60;99.40;;;;;;5108123;28;20051;-81
2023/09/28 05:59:28;;;;;;;10.60;5.43;;;18.30;99.40;;;;;;5111295;27;20031;-85
2023/09/28 06:01:56;;;;;;;9.25;5.85;;;18.40;99.40;;;;;;5111884;27;20062;-87
2023/09/28 06:04:42;;;;;;;13.35;6.47;;;18.20;99.80;;;;;;5098592;27;20543;-84
2023/09/28 06:07:12;;;;;;;17.42;6.60;;;18.00;99.90;;;;;;5096379;27;20043;-83
2023/09/28 06:09:41;;;;;;;13.48;5.75;;;18.10;99.90;;;;;;5126451;27;20036;-82
2023/09/28 06:12:08;;;;;;;12.00;5.43;;;18.20;99.60;;;;;;5134687;27;20054;-85
2023/09/28 06:17:23;;;;;;;11.25;6.57;;;18.60;99.10;;;;;;5127521;27;20051;-84
2023/09/28 06:19:50;;;;;;;8.07;5.65;;;18.90;98.70;;;;;;5112007;27;20126;-84
2023/09/28 06:22:24;;;;;;;10.48;5.53;;;18.90;98.80;;;;;;5116680;27;20040;-82
2023/09/28 06:25:10;;;;;;;13.93;5.72;;;19.10;98.50;;;;;;5122513;27;20047;-82
2023/09/28 06:27:38;;;;;;;14.85;5.47;;;19.30;97.90;;;;;;5114459;27;20118;-83
2023/09/28 06:30:06;;;;;;;9.60;5.47;;;19.40;98.10;;;;;;5105716;27;20070;-82
2023/09/28 06:32:50;;;;;;;9.23;5.15;;;19.60;97.60;;;;;;5105312;27;20116;-83
2023/09/28 06:35:18;;;;;;;12.70;5.90;;;19.70;96.90;;;;;;5110688;27;20430;-84
2023/09/28 06:37:45;;;;;;;8.82;5.28;;;19.70;96.90;;;;;;5113656;27;20070;-85
2023/09/28 06:40:12;;;;;;;8.95;5.28;;;19.70;96.80;;;;;;5108804;27;20054;-85
2023/09/28 06:42:57;;;;;;;13.35;6.18;;;19.80;96.70;;;;;;5109433;27;20149;-85
2023/09/28 06:45:25;;;;;;;11.77;5.88;;;19.90;96.30;;;;;;5123308;27;20043;-83
2023/09/28 06:48:11;;;;;;;12.20;5.53;;;19.90;96.50;;;;;;5125251;27;20027;-84
2023/09/28 06:51:15;;;;;;;13.82;5.15;;;19.90;96.20;;;;;;5108424;27;20042;-82
2023/09/28 06:56:49;;;;;;;10.63;5.68;;;19.80;96.20;;;;;;5129738;27;20063;-85
2023/09/28 06:59:36;;;;;;;9.20;5.60;;;19.80;96.30;;;;;;5108837;27;20460;-85
2023/09/28 07:02:22;;;;;;;10.00;4.95;;;19.80;96.10;;;;;;5101537;27;20047;-84
2023/09/28 07:05:07;;;;;;;12.32;5.53;;;19.90;95.50;;;;;;5108203;27;20583;-83
2023/09/28 07:07:35;;;;;;;11.35;5.22;;;19.80;95.60;;;;;;5102693;27;20093;-83
2023/09/28 07:10:02;;;;;;;8.60;5.32;;;20.10;95.60;;;;;;5093791;27;20382;-84
2023/09/28 07:12:48;;;;;;;11.52;5.15;;;20.00;95.20;;;;;;5099763;28;20122;-83
2023/09/28 07:15:16;;;;;;;16.92;5.47;;;20.10;95.20;;;;;;5127935;27;20511;-85
2023/09/28 07:17:44;;;;;;;14.05;5.88;;;20.20;95.10;;;;;;5129341;27;20039;-86
2023/09/28 07:20:14;;;;;;;13.77;5.35;;;20.40;94.30;;;;;;5105333;27;20379;-84
2023/09/28 07:22:41;;;;;;;10.93;5.80;;;20.20;94.30;;;;;;5125620;27;20031;-83
2023/09/28 07:25:09;;;;;;;11.20;5.32;;;20.30;94.40;;;;;;5121390;27;20043;-84
2023/09/28 07:27:55;;;;;;;11.13;4.97;;;20.60;93.60;;;;;;5119714;27;20481;-85
2023/09/28 07:30:22;;;;;;;18.73;5.15;;;20.50;93.40;;;;;;5127316;27;20035;-86
2023/09/28 07:35:35;;;;;;;9.15;5.05;;;20.80;92.90;;;;;;5128088;27;20417;-82
2023/09/28 07:38:03;;;;;;;9.40;4.80;;;21.10;92.10;;;;;;5114992;27;20098;-85
2023/09/28 07:43:16;;;;;;;10.38;4.15;;;21.30;90.70;;;;;;5108786;27;20066;-82
2023/09/28 07:46:00;;;;;;;10.18;4.65;;;21.50;90.00;;;;;;5120713;27;20304;-83
2023/09/28 07:48:28;;;;;;;7.63;3.72;;;21.50;89.50;;;;;;5100904;28;20039;-84
2023/09/28 07:53:46;;;;;;;7.38;3.80;;;21.50;87.50;;;;;;5130219;27;20051;-84
2023/09/28 07:56:13;;;;;;;8.57;3.75;;;21.40;87.20;;;;;;5110704;27;20063;-83
2023/09/28 07:58:59;;;;;;;7.35;4.00;;;21.40;87.40;;;;;;5131407;27;20022;-84
2023/09/28 08:01:28;;;;;;;11.18;4.72;;;21.60;87.10;;;;;;5110082;27;20382;-87
2023/09/28 08:04:00;;;;;;;9.80;4.30;;;21.90;86.30;;;;;;5105798;27;20047;-87
2023/09/28 08:06:28;;;;;;;16.65;4.25;;;22.00;84.50;;;;;;5130967;27;20043;-86
2023/09/28 08:08:57;;;;;;;7.32;3.72;;;21.80;84.40;;;;;;5113170;27;20046;-86
2023/09/28 08:11:42;;;;;;;10.15;3.80;;;22.10;84.30;;;;;;5112328;27;20457;-83
2023/09/28 08:14:27;;;;;;;10.52;3.70;;;22.20;83.90;;;;;;5100881;27;20019;-82
2023/09/28 08:17:13;;;;;;;7.45;3.45;;;22.40;83.00;;;;;;5104577;27;20054;-82
2023/09/28 08:19:40;;;;;;;11.25;4.72;;;22.50;81.70;;;;;;5126544;27;20096;-85
2023/09/28 08:24:53;;;;;;;7.38;3.40;;;22.70;78.90;;;;;;5108621;27;20046;-83
2023/09/28 08:27:37;;;;;;;6.45;3.10;;;23.10;78.90;;;;;;5124593;27;20033;-81
2023/09/28 08:30:07;;;;;;;8.95;3.20;;;23.50;78.20;;;;;;5086905;27;20393;-86
2023/09/28 08:32:53;;;;;;;11.07;3.40;;;23.50;76.00;;;;;;5106556;27;20125;-84
2023/09/28 08:35:21;;;;;;;13.70;3.28;;;23.20;75.30;;;;;;5128976;27;20035;-82
2023/09/28 08:37:48;;;;;;;10.38;3.58;;;23.40;75.30;;;;;;5111563;27;20047;-83
2023/09/28 08:40:15;;;;;;;7.80;3.30;;;23.40;74.60;;;;;;5131186;27;20031;-83
2023/09/28 08:42:47;;;;;;;7.82;2.97;;;23.60;73.30;;;;;;5126756;27;20031;-83
2023/09/28 08:45:17;;;;;;;7.55;3.20;;;23.20;72.50;;;;;;5131524;27;20039;-84
2023/09/28 08:48:07;;;;;;;8.25;3.83;;;23.40;72.80;;;;;;5131152;27;20035;-82
2023/09/28 08:53:26;;;;;;;9.23;2.88;;;23.50;70.80;;;;;;5131315;27;20043;-83
2023/09/28 08:55:54;;;;;;;7.35;3.10;;;23.60;71.40;;;;;;5094974;27;20035;-83
2023/09/28 08:58:22;;;;;;;7.80;2.70;;;23.90;70.90;;;;;;5108061;27;20408;-82
2023/09/28 09:00:49;;;;;;;9.20;3.25;;;24.00;69.30;;;;;;5121101;27;20054;-82
2023/09/28 09:03:21;;;;;;;10.20;4.20;;;24.20;68.80;;;;;;5094725;28;20433;-81
2023/09/28 09:05:50;;;;;;;11.80;3.40;;;24.50;68.60;;;;;;5119640;27;20046;-83
2023/09/28 09:08:37;;;;;;;8.15;2.95;;;24.60;68.60;;;;;;5118940;27;20062;-84
2023/09/28 09:11:10;;;;;;;6.57;3.15;;;24.60;68.80;;;;;;5096395;27;20043;-85
2023/09/28 09:17:32;;;;;;;4.78;2.75;;;24.50;67.00;;;;;;5111871;27;20035;-85
2023/09/28 09:20:00;;;;;;;5.50;2.78;;;24.60;66.30;;;;;;5082019;27;20047;-84
2023/09/28 09:22:29;;;;;;;10.15;3.50;;;24.50;68.00;;;;;;5110718;27;20073;-84
2023/09/28 09:25:15;;;;;;;7.10;2.88;;;24.50;66.90;;;;;;5126039;27;20109;-87
2023/09/28 09:33:37;;;;;;;12.68;3.00;;;24.80;66.70;;;;;;5101186;28;20040;-85
2023/09/28 09:36:05;;;;;;;9.13;3.22;;;25.30;66.30;;;;;;5111956;28;20039;-81
2023/09/28 09:38:33;;;;;;;11.70;3.58;;;25.60;65.90;;;;;;5091041;28;20405;-84
2023/09/28 09:41:07;;;;;;;21.75;5.22;;;25.80;66.60;;;;;;5105038;28;20055;-85
2023/09/28 09:43:35;;;;;;;10.82;3.88;;;25.80;65.50;;;;;;5122516;28;20092;-86
2023/09/28 09:46:09;;;;;;;18.52;5.90;;;25.70;64.60;;;;;;5091688;28;20406;-87
2023/09/28 09:48:40;;;;;;;20.27;4.88;;;25.90;65.90;;;;;;5124249;27;20455;-88
2023/09/28 09:51:26;;;;;;;8.52;3.50;;;25.90;64.90;;;;;;5119793;28;20053;-86
2023/09/28 09:53:53;;;;;;;15.40;4.43;;;25.70;64.50;;;;;;5126658;28;20039;-86
2023/09/28 09:56:21;;;;;;;18.75;6.45;;;25.70;65.40;;;;;;5099723;28;20093;-89
2023/09/28 09:59:09;;;;;;;10.13;3.15;;;25.90;66.60;;;;;;5095287;28;20036;-83
2023/09/28 10:01:39;;;;;;;9.88;3.20;;;25.90;64.00;;;;;;5107348;28;20040;-84
2023/09/28 10:04:12;;;;;;;7.43;3.08;;;26.20;64.10;;;;;;5109580;28;20043;-82
2023/09/28 10:06:43;;;;;;;9.27;3.20;;;26.20;63.30;;;;;;5128117;28;20497;-82
2023/09/28 10:09:13;;;;;;;7.25;2.78;;;26.40;63.90;;;;;;5107146;28;20070;-84
2023/09/28 10:11:40;;;;;;;4.78;2.38;;;26.50;62.30;;;;;;5110183;28;20202;-82
2023/09/28 10:14:08;;;;;;;6.25;2.58;;;26.40;62.70;;;;;;5120443;28;20039;-85
2023/09/28 10:16:55;;;;;;;8.82;3.10;;;26.30;63.40;;;;;;5098511;28;20084;-83
2023/09/28 10:19:25;;;;;;;5.72;2.85;;;26.40;62.70;;;;;;5113220;28;20416;-86
2023/09/28 10:21:55;;;;;;;7.35;2.63;;;26.50;62.30;;;;;;5092463;28;20422;-87
2023/09/28 10:24:46;;;;;;;6.25;2.90;;;26.40;62.50;;;;;;5109655;28;20047;-86
2023/09/28 10:27:14;;;;;;;9.43;3.10;;;26.70;62.90;;;;;;5110250;28;20070;-89
2023/09/28 10:29:42;;;;;;;10.90;3.30;;;27.10;62.60;;;;;;5110890;28;20512;-86
2023/09/28 10:32:19;;;;;;;6.72;3.03;;;27.20;62.00;;;;;;5121367;28;20345;-85
2023/09/28 10:35:26;;;;;;;10.35;2.85;;;27.20;61.50;;;;;;5126409;28;20059;-86
2023/09/28 10:38:22;;;;;;;21.10;4.55;;;27.50;62.00;;;;;;5079658;28;20497;-89
2023/09/28 10:41:02;;;;;;;8.77;2.55;;;27.50;60.50;;;;;;5109807;28;20112;-87
2023/09/28 10:43:49;;;;;;;6.10;2.35;;;27.60;59.50;;;;;;5126445;28;20383;-83
2023/09/28 10:46:18;;;;;;;5.72;2.50;;;26.90;59.40;;;;;;5130194;28;20041;-85
2023/09/28 10:49:02;;;;;;;5.93;2.60;;;27.00;60.10;;;;;;5113498;27;20495;-87
2023/09/28 10:51:48;;;;;;;5.72;2.20;;;27.00;60.50;;;;;;5100862;27;20034;-87
2023/09/28 10:54:15;;;;;;;8.23;2.80;;;27.40;60.50;;;;;;5116955;27;20043;-84
2023/09/28 10:56:43;;;;;;;7.68;2.83;;;27.20;60.20;;;;;;5134184;27;20084;-87
2023/09/28 10:59:11;;;;;;;5.45;2.70;;;27.40;59.50;;;;;;5095600;27;20482;-86
2023/09/28 11:02:00;;;;;;;5.50;2.67;;;27.50;59.10;;;;;;5112815;27;20035;-85
2023/09/28 11:04:45;;;;;;;8.68;3.63;;;27.30;59.10;;;;;;5100149;27;20271;-87
2023/09/28 11:07:18;;;;;;;5.68;2.95;;;27.60;58.80;;;;;;5116727;27;20135;-87
2023/09/28 11:12:48;;;;;;;6.93;2.75;;;28.30;57.90;;;;;;5117678;27;20100;-87
2023/09/28 11:15:36;;;;;;;6.18;2.50;;;28.00;57.90;;;;;;5115613;27;20127;-86
2023/09/28 11:18:24;;;;;;;7.05;2.80;;;28.30;57.70;;;;;;5125563;27;20027;-85
2023/09/28 11:20:51;;;;;;;8.05;3.05;;;28.70;58.60;;;;;;5096999;27;20686;-84
2023/09/28 11:23:19;;;;;;;9.00;3.05;;;29.20;57.50;;;;;;5100970;27;20045;-86
2023/09/28 11:25:47;;;;;;;7.25;3.05;;;29.20;56.70;;;;;;5114981;27;20043;-89
2023/09/28 11:28:33;;;;;;;6.10;2.80;;;29.50;57.00;;;;;;5100923;27;20618;-89
2023/09/28 11:31:09;;;;;;;10.13;2.90;;;29.00;56.00;;;;;;5115066;27;20067;-87
2023/09/28 11:33:38;;;;;;;7.72;2.70;;;29.20;56.60;;;;;;5109846;27;20035;-87
2023/09/28 11:36:07;;;;;;;6.40;2.58;;;29.10;54.70;;;;;;5110251;27;20088;-88
2023/09/28 11:38:53;;;;;;;7.65;2.85;;;29.40;55.50;;;;;;5132345;27;20398;-85
2023/09/28 11:41:22;;;;;;;5.80;2.78;;;30.30;53.30;;;;;;5107966;27;20045;-84
2023/09/28 11:43:56;;;;;;;8.40;2.45;;;29.70;53.90;;;;;;5115808;27;20031;-88
2023/09/28 11:46:28;;;;;;;6.18;2.78;;;29.50;54.80;;;;;;5099098;27;20486;-88
2023/09/28 11:51:54;;;;;;;9.73;2.67;;;29.50;54.80;;;;;;5119662;27;20036;-87
2023/09/28 11:54:40;;;;;;;5.63;2.30;;;29.20;54.10;;;;;;5108154;27;20028;-88
2023/09/28 11:57:08;;;;;;;7.22;2.40;;;29.10;54.30;;;;;;5092898;27;20074;-88
2023/09/28 11:59:53;;;;;;;7.68;2.88;;;29.30;54.80;;;;;;5104080;27;20123;-86
2023/09/28 12:03:16;;;;;;;7.45;2.75;;;29.10;55.10;;;;;;5117792;27;20107;-87
2023/09/28 12:06:21;;;;;;;7.65;2.53;;;29.30;54.10;;;;;;5083852;27;20050;-85
2023/09/28 12:08:49;;;;;;;5.03;2.85;;;29.50;54.30;;;;;;5079540;27;20052;-88
2023/09/28 12:11:35;;;;;;;6.95;2.90;;;29.40;53.50;;;;;;5109065;27;20019;-83
2023/09/28 12:14:02;;;;;;;9.37;2.77;;;29.30;53.50;;;;;;5111756;27;20418;-86
2023/09/28 12:16:30;;;;;;;6.95;2.97;;;29.40;53.30;;;;;;5109902;27;20332;-85
2023/09/28 12:18:59;;;;;;;9.13;2.85;;;29.20;53.40;;;;;;5113851;27;20082;-84
2023/09/28 12:21:27;;;;;;;5.47;3.00;;;29.20;53.90;;;;;;5108037;27;20124;-84
2023/09/28 12:23:58;;;;;;;5.28;2.50;;;29.40;54.40;;;;;;5097079;27;20058;-86
2023/09/28 12:26:44;;;;;;;6.15;2.63;;;29.70;53.20;;;;;;5090459;28;20035;-84
2023/09/28 12:29:29;;;;;;;10.25;2.92;;;29.30;52.80;;;;;;5095034;28;20072;-86
2023/09/28 12:32:17;;;;;;;9.37;3.03;;;29.50;52.90;;;;;;5125964;27;20035;-86
2023/09/28 12:34:45;;;;;;;9.00;2.72;;;29.50;52.80;;;;;;5102628;27;20387;-84
2023/09/28 12:37:32;;;;;;;7.03;2.35;;;29.50;53.00;;;;;;5115570;27;20019;-88
2023/09/28 12:40:00;;;;;;;9.07;3.28;;;29.90;52.60;;;;;;5127841;27;20383;-86
2023/09/28 12:42:28;;;;;;;6.07;2.80;;;30.30;53.00;;;;;;5097470;27;20047;-87
2023/09/28 12:44:58;;;;;;;4.55;2.53;;;30.50;53.10;;;;;;5128962;27;20049;-86
2023/09/28 12:47:26;;;;;;;;;;;30.90;52.10;;;;;;5101706;27;20038;-86
2023/09/28 12:49:54;;;;;;;8.82;2.75;;;31.10;52.00;;;;;;5076488;27;20014;-86
2023/09/28 12:52:21;;;;;;;7.10;2.47;;;31.20;51.20;;;;;;5095810;27;20134;-85
2023/09/28 12:54:51;;;;;;;9.32;2.33;;;31.30;50.80;;;;;;5109285;27;20035;-86
2023/09/28 12:57:22;;;;;;;7.82;2.95;;;31.10;50.50;;;;;;5107158;27;20050;-86
2023/09/28 12:59:50;;;;;;;7.57;3.08;;;31.10;50.40;;;;;;5106365;27;20435;-84
2023/09/28 13:02:19;;;;;;;6.38;2.83;;;30.80;50.30;;;;;;5129410;27;20471;-85
2023/09/28 13:04:47;;;;;;;7.13;3.08;;;30.50;50.80;;;;;;5091845;27;20035;-87
2023/09/28 13:07:16;;;;;;;5.60;2.85;;;30.70;50.70;;;;;;5094988;28;20040;-85
2023/09/28 13:09:44;;;;;;;6.88;2.38;;;31.00;50.30;;;;;;5128836;27;20100;-86
2023/09/28 13:12:15;;;;;;;7.75;3.10;;;31.20;50.10;;;;;;5090557;27;20043;-86
2023/09/28 13:14:43;;;;;;;11.75;3.90;;;31.10;49.70;;;;;;5110783;27;20039;-84
2023/09/28 13:17:13;;;;;;;5.90;2.70;;;30.90;50.30;;;;;;5093498;27;20044;-85
2023/09/28 13:19:44;;;;;;;10.38;3.30;;;30.00;51.20;;;;;;5094499;27;20521;-86
2023/09/28 13:22:12;;;;;;;6.03;2.72;;;29.20;51.90;;;;;;5096266;28;20104;-85
2023/09/28 13:24:44;;;;;;;5.82;2.85;;;29.90;51.50;;;;;;5074135;27;20134;-85
2023/09/28 13:27:12;;;;;;;9.40;3.33;;;29.90;51.30;;;;;;5125930;27;20107;-85
2023/09/28 13:29:40;;;;;;;7.75;2.70;;;30.50;51.40;;;;;;5094278;28;20134;-87
2023/09/28 13:32:13;;;;;;;7.53;3.00;;;31.30;51.10;;;;;;5109158;28;20039;-87
2023/09/28 13:34:42;;;;;;;11.43;3.13;;;30.90;50.00;;;;;;5108597;28;20039;-86
2023/09/28 13:37:10;;;;;;;7.85;3.25;;;32.50;48.30;;;;;;5105505;28;20043;-85
2023/09/28 13:39:39;;;;;;;6.85;3.03;;;33.50;49.10;;;;;;5114131;28;20050;-89
2023/09/28 13:42:10;;;;;;;6.90;2.72;;;35.80;46.20;;;;;;5110297;28;20039;-85
2023/09/28 13:44:39;;;;;;;5.95;2.85;;;36.90;44.70;;;;;;5113290;28;20035;-86
2023/09/28 13:47:07;;;;;;;8.38;2.90;;;37.80;43.50;;;;;;5105393;28;20494;-85
2023/09/28 13:49:35;;;;;;;6.22;2.83;;;38.60;43.00;;;;;;5111762;28;20482;-86
2023/09/28 13:52:08;;;;;;;9.57;3.30;;;39.20;42.80;;;;;;5112375;28;20406;-86
2023/09/28 13:54:36;;;;;;;5.70;2.47;;;39.20;42.50;;;;;;5103359;28;20043;-84
2023/09/28 13:57:07;;;;;;;7.78;2.42;;;38.80;42.00;;;;;;5085322;28;20553;-83
2023/09/28 13:59:37;;;;;;;9.75;2.97;;;37.60;42.30;;;;;;5089377;28;20065;-83
2023/09/28 14:02:06;;;;;;;7.60;2.42;;;37.30;43.20;;;;;;5107145;28;20051;-83
2023/09/28 14:04:36;;;;;;;6.53;2.90;;;36.20;43.50;;;;;;5109038;28;20058;-87
2023/09/28 14:07:03;;;;;;;6.75;2.80;;;37.10;43.40;;;;;;5078332;28;20051;-85
2023/09/28 14:09:31;;;;;;;7.15;2.60;;;38.10;43.40;;;;;;5092773;28;20046;-86
2023/09/28 14:12:00;;;;;;;14.95;6.10;;;38.00;42.40;;;;;;5105809;28;20434;-86
2023/09/28 14:14:31;;;;;;;5.68;2.30;;;38.80;42.00;;;;;;5104299;28;20490;-83
2023/09/28 14:17:01;;;;;;;10.70;3.15;;;36.50;42.70;;;;;;5121329;28;20055;-84
2023/09/28 14:19:45;;;;;;;6.90;2.58;;;34.80;44.50;;;;;;5121968;27;20039;-84
2023/09/28 14:22:16;;;;;;;5.70;2.50;;;35.40;43.70;;;;;;5106670;28;20251;-84
2023/09/28 14:24:43;;;;;;;9.13;3.03;;;36.50;43.90;;;;;;5098054;27;20146;-87
2023/09/28 14:27:13;;;;;;;7.88;2.38;;;37.90;42.10;;;;;;5114012;27;20090;-86
2023/09/28 14:29:40;;;;;;;9.77;2.65;;;36.90;42.20;;;;;;5131794;27;20648;-82
2023/09/28 14:32:09;;;;;;;9.45;2.58;;;36.30;42.70;;;;;;5104715;27;20080;-83
2023/09/28 14:34:36;;;;;;;7.93;2.60;;;37.40;41.80;;;;;;5130525;27;20047;-84
2023/09/28 14:37:04;;;;;;;5.70;2.55;;;36.00;43.40;;;;;;5114726;27;20047;-84
2023/09/28 14:39:33;;;;;;;5.97;2.63;;;35.60;43.80;;;;;;5105562;27;20257;-84